Almere Haven Meer informatie Almere Haven


Onweer radar Meer informatie blitzortung!


Regen radar Meer informatie rain snow radar


Apparatuur in gebruik:

Davis VP2

Meteohub

ALIX 1D

Web-Oke


Het weer levert geen direct gevaar op.    Er zijn geen waarschuwingen afgegeven.

METAR rapporten vliegvelden

   
EHAM - Amsterdam/Schiph, Netherlands
Afstand tot: WZW 42 km
Gewijzigd: 06-04-2020 13:55
Helder  
Helder  
   Wind: Zuiden 18.5 km/h
Wind: Zuiden 18.5 km/h
Temperatuur: 21°C
Dauwpunt: 6°C
Vochtigheid: 38%
Barometer: 1017 hPa
Zicht: meer dan 10 km
Bewolking: Helder
EHAM 061155Z 19010KT 150V220 CAVOK 21/06 Q1017 NOSIG
EHDL - Deelen Rnlafb, Netherlands
Afstand tot: ZO 49 km
Gewijzigd: 06-04-2020 13:55
Helder  
Helder  
   Wind: Zuiden 20.4 km/h
Wind: Zuiden 20.4 km/h
Temperatuur: 22°C
Dauwpunt: 2°C
Vochtigheid: 27%
Barometer: 1018 hPa
Bewolking: Helder
Zicht: meer dan 10 km
Bewolking: Helder
EHDL 061155Z AUTO 18011KT 090V240 9999 NCD 22/02 Q1018 BLU
EHKD - De Kooy (navy), Netherlands
Afstand tot: NW 72 km
Gewijzigd: 06-04-2020 13:55
Helder  
Helder  
   Wind: ZW 33.3 km/h
Wind: ZW 33.3 km/h
Temperatuur: 17°C
Dauwpunt: 4°C
Vochtigheid: 42%
Barometer: 1017 hPa
Bewolking: Helder
Zicht: meer dan 10 km
Bewolking: Helder
EHKD 061155Z AUTO 22018KT 190V250 9999 NCD 17/04 Q1017 BLU 22015G25KT CAVOK
EHRD - Rotterdam Airpor, Netherlands
Afstand tot: ZW 80 km
Gewijzigd: 06-04-2020 13:55
Helder  
Helder  
   Wind: ZW 25.9 km/h
Wind: ZW 25.9 km/h
Temperatuur: 20°C
Dauwpunt: 7°C
Vochtigheid: 43%
Barometer: 1017 hPa
Bewolking: Helder
Zicht: meer dan 10 km
Bewolking: Helder
EHRD 061155Z AUTO 22014KT 170V260 9999 NCD 20/07 Q1017 NOSIG
EHVK - Volkel Rnlafb, Netherlands
Afstand tot: ZZO 87 km
Gewijzigd: 06-04-2020 13:55
Helder  
Helder  
   Wind: Zuiden 18.5 km/h
Wind: Zuiden 18.5 km/h
Temperatuur: 22°C
Dauwpunt: 4°C
Vochtigheid: 31%
Barometer: 1018 hPa
Bewolking: Helder
Zicht: meer dan 10 km
Bewolking: Helder
EHVK 061155Z AUTO 17010KT 150V260 9999 NCD 22/04 Q1018 BLU
EHLW - Leeuwarden Rnlaf, Netherlands
Afstand tot: NNO 95 km
Gewijzigd: 06-04-2020 13:55
Helder  
Helder  
   Wind: ZW 24.1 km/h
Wind: ZW 24.1 km/h
Temperatuur: 20°C
Dauwpunt: 6°C
Vochtigheid: 40%
Barometer: 1017 hPa
Bewolking: Helder
Zicht: meer dan 10 km
Bewolking: Helder
EHLW 061155Z AUTO 22013KT 170V240 9999 NCD 20/06 Q1017 BLU 21012KT CAVOK

Script ontwikkeld door  Saratoga-weather.org Aangepast voor de template door  Weerstation Leuven

U vindt ons ook hier:

Het Weer Aktueel

UK Metoffice

European Weather Network

Weather Underground

Benelux Weer Netwerk

AWEKAS